sensor_id;sensor_type;location;lat;lon;timestamp;pressure;altitude;pressure_sealevel;temperature;humidity
10466;BME280;5280;42.600;23.556;2023-02-21T00:01:42;93789.78;;;3.46;86.55
10466;BME280;5280;42.600;23.556;2023-02-21T00:04:26;93819.16;;;3.70;86.76
10466;BME280;5280;42.600;23.556;2023-02-21T00:07:11;93828.53;;;3.74;86.15
10466;BME280;5280;42.600;23.556;2023-02-21T00:09:55;93825.03;;;3.75;84.74
10466;BME280;5280;42.600;23.556;2023-02-21T00:12:39;93824.97;;;3.77;84.61
10466;BME280;5280;42.600;23.556;2023-02-21T00:15:25;93816.81;;;3.64;84.44
10466;BME280;5280;42.600;23.556;2023-02-21T00:18:09;93826.88;;;3.73;84.17
10466;BME280;5280;42.600;23.556;2023-02-21T00:20:54;93831.25;;;3.73;84.87
10466;BME280;5280;42.600;23.556;2023-02-21T00:23:38;93837.50;;;3.69;84.97
10466;BME280;5280;42.600;23.556;2023-02-21T00:26:22;93829.03;;;3.64;85.06
10466;BME280;5280;42.600;23.556;2023-02-21T00:29:07;93801.84;;;3.49;85.57
10466;BME280;5280;42.600;23.556;2023-02-21T00:31:53;93825.50;;;3.65;84.86
10466;BME280;5280;42.600;23.556;2023-02-21T00:34:37;93812.59;;;3.62;85.11
10466;BME280;5280;42.600;23.556;2023-02-21T00:37:21;93807.38;;;3.62;85.08
10466;BME280;5280;42.600;23.556;2023-02-21T00:40:06;93800.44;;;3.61;85.41
10466;BME280;5280;42.600;23.556;2023-02-21T00:42:54;93778.25;;;3.51;85.53
10466;BME280;5280;42.600;23.556;2023-02-21T00:45:38;93780.66;;;3.55;86.33
10466;BME280;5280;42.600;23.556;2023-02-21T00:48:24;93779.69;;;3.58;86.40
10466;BME280;5280;42.600;23.556;2023-02-21T00:51:08;93787.38;;;3.61;86.02
10466;BME280;5280;42.600;23.556;2023-02-21T00:53:53;93796.13;;;3.60;85.45
10466;BME280;5280;42.600;23.556;2023-02-21T00:56:37;93780.38;;;3.61;85.70
10466;BME280;5280;42.600;23.556;2023-02-21T00:59:30;93771.63;;;3.62;85.44
10466;BME280;5280;42.600;23.556;2023-02-21T01:02:14;93723.53;;;3.29;86.19
10466;BME280;5280;42.600;23.556;2023-02-21T01:05:00;93755.81;;;3.46;86.07
10466;BME280;5280;42.600;23.556;2023-02-21T01:07:44;93776.06;;;3.60;86.66
10466;BME280;5280;42.600;23.556;2023-02-21T01:10:29;93759.69;;;3.57;86.99
10466;BME280;5280;42.600;23.556;2023-02-21T01:13:13;93749.31;;;3.55;86.88
10466;BME280;5280;42.600;23.556;2023-02-21T01:15:58;93747.47;;;3.57;88.02
10466;BME280;5280;42.600;23.556;2023-02-21T01:18:42;93757.03;;;3.58;87.66
10466;BME280;5280;42.600;23.556;2023-02-21T01:21:28;93743.97;;;3.58;88.31
10466;BME280;5280;42.600;23.556;2023-02-21T01:24:14;93732.66;;;3.58;88.63
10466;BME280;5280;42.600;23.556;2023-02-21T01:26:58;93701.75;;;3.49;88.54
10466;BME280;5280;42.600;23.556;2023-02-21T01:29:43;93698.91;;;3.53;87.97
10466;BME280;5280;42.600;23.556;2023-02-21T01:32:27;93711.44;;;3.64;88.04
10466;BME280;5280;42.600;23.556;2023-02-21T01:35:12;93670.50;;;3.45;88.15
10466;BME280;5280;42.600;23.556;2023-02-21T01:37:57;93715.19;;;3.77;87.44
10466;BME280;5280;42.600;23.556;2023-02-21T01:40:42;93703.25;;;3.71;87.13
10466;BME280;5280;42.600;23.556;2023-02-21T01:43:27;93707.41;;;3.75;87.24
10466;BME280;5280;42.600;23.556;2023-02-21T01:46:13;93725.47;;;3.80;87.64
10466;BME280;5280;42.600;23.556;2023-02-21T01:48:59;93730.41;;;3.86;86.86
10466;BME280;5280;42.600;23.556;2023-02-21T01:51:45;93725.19;;;3.86;86.66
10466;BME280;5280;42.600;23.556;2023-02-21T01:54:33;93717.63;;;3.80;87.08
10466;BME280;5280;42.600;23.556;2023-02-21T01:57:19;93718.19;;;3.86;86.24
10466;BME280;5280;42.600;23.556;2023-02-21T02:00:07;93708.59;;;3.87;86.67
10466;BME280;5280;42.600;23.556;2023-02-21T02:02:55;93703.94;;;3.75;86.66
10466;BME280;5280;42.600;23.556;2023-02-21T02:05:41;93696.31;;;3.70;87.42
10466;BME280;5280;42.600;23.556;2023-02-21T02:08:28;93687.28;;;3.77;87.06
10466;BME280;5280;42.600;23.556;2023-02-21T02:11:34;93674.56;;;3.70;86.82
10466;BME280;5280;42.600;23.556;2023-02-21T02:17:24;93667.34;;;3.75;86.66
10466;BME280;5280;42.600;23.556;2023-02-21T02:23:33;93655.59;;;3.66;87.11
10466;BME280;5280;42.600;23.556;2023-02-21T02:26:37;93664.66;;;3.76;87.40
10466;BME280;5280;42.600;23.556;2023-02-21T02:29:18;93670.06;;;3.73;87.26
10466;BME280;5280;42.600;23.556;2023-02-21T02:32:20;93667.63;;;3.69;87.45
10466;BME280;5280;42.600;23.556;2023-02-21T02:34:58;93652.56;;;3.57;88.25
10466;BME280;5280;42.600;23.556;2023-02-21T02:37:31;93664.41;;;3.64;88.06
10466;BME280;5280;42.600;23.556;2023-02-21T02:40:02;93665.66;;;3.74;87.89
10466;BME280;5280;42.600;23.556;2023-02-21T02:42:46;93667.97;;;3.80;87.58
10466;BME280;5280;42.600;23.556;2023-02-21T02:45:22;93675.75;;;3.81;87.89
10466;BME280;5280;42.600;23.556;2023-02-21T02:47:52;93677.66;;;3.78;87.83
10466;BME280;5280;42.600;23.556;2023-02-21T02:50:23;93653.94;;;3.64;88.16
10466;BME280;5280;42.600;23.556;2023-02-21T02:52:51;93679.50;;;3.76;87.67
10466;BME280;5280;42.600;23.556;2023-02-21T02:55:31;93670.69;;;3.78;87.73
10466;BME280;5280;42.600;23.556;2023-02-21T02:58:00;93673.13;;;3.81;87.17
10466;BME280;5280;42.600;23.556;2023-02-21T03:00:29;93669.84;;;3.78;87.38
10466;BME280;5280;42.600;23.556;2023-02-21T03:03:08;93679.22;;;3.82;87.57
10466;BME280;5280;42.600;23.556;2023-02-21T03:05:53;93659.72;;;3.70;88.09
10466;BME280;5280;42.600;23.556;2023-02-21T03:08:28;93679.22;;;3.82;87.85
10466;BME280;5280;42.600;23.556;2023-02-21T03:11:02;93675.97;;;3.77;87.85
10466;BME280;5280;42.600;23.556;2023-02-21T03:13:38;93668.06;;;3.78;87.77
10466;BME280;5280;42.600;23.556;2023-02-21T03:16:14;93656.88;;;3.58;88.71
10466;BME280;5280;42.600;23.556;2023-02-21T03:18:45;93666.38;;;3.59;87.75
10466;BME280;5280;42.600;23.556;2023-02-21T03:21:17;93680.09;;;3.64;88.46
10466;BME280;5280;42.600;23.556;2023-02-21T03:23:49;93668.50;;;3.69;88.96
10466;BME280;5280;42.600;23.556;2023-02-21T03:26:17;93675.97;;;3.77;88.33
10466;BME280;5280;42.600;23.556;2023-02-21T03:28:44;93679.34;;;3.79;87.63
10466;BME280;5280;42.600;23.556;2023-02-21T03:31:13;93631.97;;;3.51;87.22
10466;BME280;5280;42.600;23.556;2023-02-21T03:33:42;93671.50;;;3.79;87.11
10466;BME280;5280;42.600;23.556;2023-02-21T03:36:09;93669.72;;;3.79;86.98
10466;BME280;5280;42.600;23.556;2023-02-21T03:38:37;93668.88;;;3.79;86.85
10466;BME280;5280;42.600;23.556;2023-02-21T03:41:07;93631.34;;;3.45;87.01
10466;BME280;5280;42.600;23.556;2023-02-21T03:43:34;93662.56;;;3.66;87.65
10466;BME280;5280;42.600;23.556;2023-02-21T03:46:00;93671.72;;;3.74;87.33
10466;BME280;5280;42.600;23.556;2023-02-21T03:48:27;93668.25;;;3.74;87.50
10466;BME280;5280;42.600;23.556;2023-02-21T03:50:54;93680.56;;;3.72;87.58
10466;BME280;5280;42.600;23.556;2023-02-21T03:53:21;93662.56;;;3.66;87.43
10466;BME280;5280;42.600;23.556;2023-02-21T03:55:49;93627.88;;;3.45;87.48
10466;BME280;5280;42.600;23.556;2023-02-21T03:58:16;93678.72;;;3.74;86.75
10466;BME280;5280;42.600;23.556;2023-02-21T04:00:43;93684.88;;;3.73;85.98
10466;BME280;5280;42.600;23.556;2023-02-21T04:03:09;93676.41;;;3.68;85.80
10466;BME280;5280;42.600;23.556;2023-02-21T04:05:39;93695.63;;;3.67;86.02
10466;BME280;5280;42.600;23.556;2023-02-21T04:08:07;93672.47;;;3.59;86.41
10466;BME280;5280;42.600;23.556;2023-02-21T04:10:34;93693.09;;;3.65;86.48
10466;BME280;5280;42.600;23.556;2023-02-21T04:13:02;93690.41;;;3.67;86.18
10466;BME280;5280;42.600;23.556;2023-02-21T04:15:29;93693.38;;;3.59;86.18
10466;BME280;5280;42.600;23.556;2023-02-21T04:17:56;93692.53;;;3.59;85.94
10466;BME280;5280;42.600;23.556;2023-02-21T04:20:25;93684.00;;;3.55;86.02
10466;BME280;5280;42.600;23.556;2023-02-21T04:22:52;93694.22;;;3.60;86.56
10466;BME280;5280;42.600;23.556;2023-02-21T04:25:19;93708.19;;;3.59;85.92
10466;BME280;5280;42.600;23.556;2023-02-21T04:27:46;93697.91;;;3.56;86.60
10466;BME280;5280;42.600;23.556;2023-02-21T04:30:15;93657.00;;;3.19;86.58
10466;BME280;5280;42.600;23.556;2023-02-21T04:32:42;93696.34;;;3.52;87.58
10466;BME280;5280;42.600;23.556;2023-02-21T04:35:09;93693.63;;;3.36;88.34
10466;BME280;5280;42.600;23.556;2023-02-21T04:37:36;93700.03;;;3.47;86.80
10466;BME280;5280;42.600;23.556;2023-02-21T04:40:03;93709.91;;;3.41;87.43
10466;BME280;5280;42.600;23.556;2023-02-21T04:42:30;93644.22;;;2.94;87.29
10466;BME280;5280;42.600;23.556;2023-02-21T04:44:57;93694.31;;;3.21;88.36
10466;BME280;5280;42.600;23.556;2023-02-21T04:47:25;93705.06;;;3.33;88.41
10466;BME280;5280;42.600;23.556;2023-02-21T04:49:52;93695.38;;;3.35;88.24
10466;BME280;5280;42.600;23.556;2023-02-21T04:52:19;93697.22;;;3.33;88.25
10466;BME280;5280;42.600;23.556;2023-02-21T04:54:46;93683.38;;;3.31;88.40
10466;BME280;5280;42.600;23.556;2023-02-21T04:57:15;93679.13;;;3.29;88.63
10466;BME280;5280;42.600;23.556;2023-02-21T04:59:42;93682.81;;;3.25;88.62
10466;BME280;5280;42.600;23.556;2023-02-21T05:02:09;93673.50;;;3.19;89.13
10466;BME280;5280;42.600;23.556;2023-02-21T05:04:37;93678.94;;;3.15;89.61
10466;BME280;5280;42.600;23.556;2023-02-21T05:07:04;93676.47;;;3.12;89.71
10466;BME280;5280;42.600;23.556;2023-02-21T05:09:31;93678.66;;;3.02;90.80
10466;BME280;5280;42.600;23.556;2023-02-21T05:11:58;93681.75;;;3.10;90.77
10466;BME280;5280;42.600;23.556;2023-02-21T05:14:25;93685.50;;;3.04;90.48
10466;BME280;5280;42.600;23.556;2023-02-21T05:16:52;93673.09;;;3.10;90.47
10466;BME280;5280;42.600;23.556;2023-02-21T05:19:19;93669.56;;;3.11;91.01
10466;BME280;5280;42.600;23.556;2023-02-21T05:21:53;93689.16;;;3.19;90.08
10466;BME280;5280;42.600;23.556;2023-02-21T05:24:20;93664.50;;;3.08;90.23
10466;BME280;5280;42.600;23.556;2023-02-21T05:26:47;93670.25;;;3.14;89.88
10466;BME280;5280;42.600;23.556;2023-02-21T05:29:14;93682.91;;;3.23;89.45
10466;BME280;5280;42.600;23.556;2023-02-21T05:31:41;93663.28;;;3.15;89.80
10466;BME280;5280;42.600;23.556;2023-02-21T05:34:11;93682.75;;;3.26;89.36
10466;BME280;5280;42.600;23.556;2023-02-21T05:36:38;93675.34;;;3.17;89.50
10466;BME280;5280;42.600;23.556;2023-02-21T05:39:07;93618.22;;;2.74;90.19
10466;BME280;5280;42.600;23.556;2023-02-21T05:41:34;93680.69;;;3.14;90.42
10466;BME280;5280;42.600;23.556;2023-02-21T05:44:02;93684.94;;;3.17;90.52
10466;BME280;5280;42.600;23.556;2023-02-21T05:46:30;93683.94;;;3.19;90.37
10466;BME280;5280;42.600;23.556;2023-02-21T05:48:59;93658.53;;;3.04;89.92
10466;BME280;5280;42.600;23.556;2023-02-21T05:51:27;93673.66;;;3.16;90.15
10466;BME280;5280;42.600;23.556;2023-02-21T05:53:54;93693.19;;;3.26;90.40
10466;BME280;5280;42.600;23.556;2023-02-21T05:56:22;93676.63;;;3.27;90.86
10466;BME280;5280;42.600;23.556;2023-02-21T05:58:49;93681.69;;;3.30;90.91
10466;BME280;5280;42.600;23.556;2023-02-21T06:01:16;93693.84;;;3.31;90.92
10466;BME280;5280;42.600;23.556;2023-02-21T06:03:43;93666.59;;;3.18;90.87
10466;BME280;5280;42.600;23.556;2023-02-21T06:06:10;93697.22;;;3.33;90.11
10466;BME280;5280;42.600;23.556;2023-02-21T06:08:44;93696.28;;;3.34;90.35
10466;BME280;5280;42.600;23.556;2023-02-21T06:11:11;93699.06;;;3.31;91.01
10466;BME280;5280;42.600;23.556;2023-02-21T06:13:41;93682.03;;;3.04;93.05
10466;BME280;5280;42.600;23.556;2023-02-21T06:16:07;93714.09;;;3.26;92.75
10466;BME280;5280;42.600;23.556;2023-02-21T06:18:34;93672.38;;;3.06;92.97
10466;BME280;5280;42.600;23.556;2023-02-21T06:21:01;93700.03;;;3.29;92.50
10466;BME280;5280;42.600;23.556;2023-02-21T06:23:28;93665.19;;;3.11;92.74
10466;BME280;5280;42.600;23.556;2023-02-21T06:25:55;93714.94;;;3.45;92.90
10466;BME280;5280;42.600;23.556;2023-02-21T06:28:26;93710.50;;;3.47;93.29
10466;BME280;5280;42.600;23.556;2023-02-21T06:30:55;93713.56;;;3.56;91.61
10466;BME280;5280;42.600;23.556;2023-02-21T06:33:25;93723.47;;;3.68;92.27
10466;BME280;5280;42.600;23.556;2023-02-21T06:35:52;93714.69;;;3.69;92.69
10466;BME280;5280;42.600;23.556;2023-02-21T06:38:19;93713.41;;;3.77;93.21
10466;BME280;5280;42.600;23.556;2023-02-21T06:40:46;93709.72;;;3.81;92.40
10466;BME280;5280;42.600;23.556;2023-02-21T06:43:12;93725.97;;;3.88;92.25
10466;BME280;5280;42.600;23.556;2023-02-21T06:45:40;93714.44;;;3.92;92.27
10466;BME280;5280;42.600;23.556;2023-02-21T06:48:13;93711.50;;;3.81;92.58
10466;BME280;5280;42.600;23.556;2023-02-21T06:50:40;93731.72;;;4.13;92.52
10466;BME280;5280;42.600;23.556;2023-02-21T06:53:07;93726.16;;;4.19;92.11
10466;BME280;5280;42.600;23.556;2023-02-21T06:55:33;93707.16;;;4.16;92.56
10466;BME280;5280;42.600;23.556;2023-02-21T06:58:00;93724.47;;;4.36;91.18
10466;BME280;5280;42.600;23.556;2023-02-21T07:00:27;93713.09;;;4.37;89.69
10466;BME280;5280;42.600;23.556;2023-02-21T07:02:54;93700.13;;;4.33;89.55
10466;BME280;5280;42.600;23.556;2023-02-21T07:05:22;93691.06;;;4.41;89.21
10466;BME280;5280;42.600;23.556;2023-02-21T07:07:49;93731.31;;;4.72;87.86
10466;BME280;5280;42.600;23.556;2023-02-21T07:10:16;93728.91;;;4.85;85.07
10466;BME280;5280;42.600;23.556;2023-02-21T07:12:42;93732.25;;;5.04;80.91
10466;BME280;5280;42.600;23.556;2023-02-21T07:15:09;93728.69;;;5.23;79.93
10466;BME280;5280;42.600;23.556;2023-02-21T07:17:39;93730.38;;;5.39;78.14
10466;BME280;5280;42.600;23.556;2023-02-21T07:20:08;93720.69;;;5.57;80.66
10466;BME280;5280;42.600;23.556;2023-02-21T07:22:36;93721.88;;;5.67;76.01
10466;BME280;5280;42.600;23.556;2023-02-21T07:25:03;93636.94;;;5.38;74.53
10466;BME280;5280;42.600;23.556;2023-02-21T07:27:31;93700.66;;;5.87;73.00
10466;BME280;5280;42.600;23.556;2023-02-21T07:29:57;93711.63;;;6.10;72.35
10466;BME280;5280;42.600;23.556;2023-02-21T07:32:24;93714.28;;;6.24;72.39
10466;BME280;5280;42.600;23.556;2023-02-21T07:34:51;93676.97;;;6.19;70.61
10466;BME280;5280;42.600;23.556;2023-02-21T07:37:18;93691.69;;;6.37;72.48
10466;BME280;5280;42.600;23.556;2023-02-21T07:39:47;93686.25;;;6.54;69.68
10466;BME280;5280;42.600;23.556;2023-02-21T07:42:13;93692.88;;;6.75;70.13
10466;BME280;5280;42.600;23.556;2023-02-21T07:44:40;93690.06;;;6.92;68.34
10466;BME280;5280;42.600;23.556;2023-02-21T07:47:07;93670.75;;;6.93;68.34
10466;BME280;5280;42.600;23.556;2023-02-21T07:49:37;93658.19;;;6.99;67.01
10466;BME280;5280;42.600;23.556;2023-02-21T07:52:04;93685.75;;;7.34;67.11
10466;BME280;5280;42.600;23.556;2023-02-21T07:54:31;93685.66;;;7.50;66.16
10466;BME280;5280;42.600;23.556;2023-02-21T07:56:59;93687.41;;;7.63;66.70
10466;BME280;5280;42.600;23.556;2023-02-21T07:59:26;93657.09;;;7.58;64.76
10466;BME280;5280;42.600;23.556;2023-02-21T08:01:53;93668.16;;;7.77;63.38
10466;BME280;5280;42.600;23.556;2023-02-21T08:04:20;93656.91;;;7.88;63.69
10466;BME280;5280;42.600;23.556;2023-02-21T08:06:48;93655.63;;;8.07;63.14
10466;BME280;5280;42.600;23.556;2023-02-21T08:09:16;93666.25;;;8.33;63.41
10466;BME280;5280;42.600;23.556;2023-02-21T08:11:43;93639.06;;;8.32;61.98
10466;BME280;5280;42.600;23.556;2023-02-21T08:14:11;93673.91;;;8.62;62.15
10466;BME280;5280;42.600;23.556;2023-02-21T08:16:40;93669.53;;;8.76;59.98
10466;BME280;5280;42.600;23.556;2023-02-21T08:19:07;93665.31;;;8.86;60.48
10466;BME280;5280;42.600;23.556;2023-02-21T08:21:34;93655.28;;;8.78;59.97
10466;BME280;5280;42.600;23.556;2023-02-21T08:24:01;93657.06;;;9.03;59.12
10466;BME280;5280;42.600;23.556;2023-02-21T08:26:28;93665.50;;;9.08;59.73
10466;BME280;5280;42.600;23.556;2023-02-21T08:28:55;93662.56;;;9.25;57.57
10466;BME280;5280;42.600;23.556;2023-02-21T08:31:23;93653.91;;;9.23;57.28
10466;BME280;5280;42.600;23.556;2023-02-21T08:33:51;93653.91;;;9.23;56.79
10466;BME280;5280;42.600;23.556;2023-02-21T08:36:17;93659.69;;;9.28;57.71
10466;BME280;5280;42.600;23.556;2023-02-21T08:38:44;93653.47;;;9.29;57.66
10466;BME280;5280;42.600;23.556;2023-02-21T08:41:11;93654.00;;;9.34;57.81
10466;BME280;5280;42.600;23.556;2023-02-21T08:43:39;93641.56;;;9.36;56.10
10466;BME280;5280;42.600;23.556;2023-02-21T08:46:06;93638.66;;;9.52;57.43
10466;BME280;5280;42.600;23.556;2023-02-21T08:48:35;93647.06;;;9.70;55.63
10466;BME280;5280;42.600;23.556;2023-02-21T08:51:02;93647.59;;;9.75;55.34
10466;BME280;5280;42.600;23.556;2023-02-21T08:53:29;93648.69;;;9.60;55.03
10466;BME280;5280;42.600;23.556;2023-02-21T08:55:55;93648.09;;;9.80;56.23
10466;BME280;5280;42.600;23.556;2023-02-21T08:58:22;93648.22;;;9.78;54.35
10466;BME280;5280;42.600;23.556;2023-02-21T09:00:49;93643.28;;;9.98;55.41
10466;BME280;5280;42.600;23.556;2023-02-21T09:03:16;93632.00;;;9.96;54.77
10466;BME280;5280;42.600;23.556;2023-02-21T09:05:44;93637.22;;;10.21;55.08
10466;BME280;5280;42.600;23.556;2023-02-21T09:08:10;93626.91;;;10.29;54.06
10466;BME280;5280;42.600;23.556;2023-02-21T09:10:37;93639.31;;;10.40;53.55
10466;BME280;5280;42.600;23.556;2023-02-21T09:13:11;93640.19;;;10.51;54.00
10466;BME280;5280;42.600;23.556;2023-02-21T09:15:38;93628.81;;;10.51;54.05
10466;BME280;5280;42.600;23.556;2023-02-21T09:18:05;93621.59;;;10.53;53.21
10466;BME280;5280;42.600;23.556;2023-02-21T09:20:32;93618.25;;;10.62;52.56
10466;BME280;5280;42.600;23.556;2023-02-21T09:23:01;93622.13;;;10.69;52.65
10466;BME280;5280;42.600;23.556;2023-02-21T09:25:28;93611.78;;;10.66;52.57
10466;BME280;5280;42.600;23.556;2023-02-21T09:27:55;93624.53;;;10.83;52.97
10466;BME280;5280;42.600;23.556;2023-02-21T09:30:25;93618.78;;;10.89;53.48
10466;BME280;5280;42.600;23.556;2023-02-21T09:32:54;93611.09;;;10.97;53.56
10466;BME280;5280;42.600;23.556;2023-02-21T09:35:21;93606.09;;;11.05;51.94
10466;BME280;5280;42.600;23.556;2023-02-21T09:37:48;93587.44;;;11.07;52.12
10466;BME280;5280;42.600;23.556;2023-02-21T09:40:23;93612.09;;;11.30;51.04
10466;BME280;5280;42.600;23.556;2023-02-21T09:42:53;93596.47;;;11.38;50.59
10466;BME280;5280;42.600;23.556;2023-02-21T09:45:30;93602.59;;;11.60;50.33
10466;BME280;5280;42.600;23.556;2023-02-21T09:48:00;93603.28;;;11.62;48.57
10466;BME280;5280;42.600;23.556;2023-02-21T09:50:33;93589.31;;;11.72;47.89
10466;BME280;5280;42.600;23.556;2023-02-21T09:53:02;93597.00;;;11.86;48.71
10466;BME280;5280;42.600;23.556;2023-02-21T09:55:33;93585.56;;;11.96;49.19
10466;BME280;5280;42.600;23.556;2023-02-21T09:58:05;93592.06;;;12.03;48.24
10466;BME280;5280;42.600;23.556;2023-02-21T10:00:36;93565.44;;;12.05;47.67
10466;BME280;5280;42.600;23.556;2023-02-21T10:06:01;93582.50;;;12.44;46.99
10466;BME280;5280;42.600;23.556;2023-02-21T10:08:33;93579.09;;;12.53;48.14
10466;BME280;5280;42.600;23.556;2023-02-21T10:11:20;93574.31;;;12.68;45.91
10466;BME280;5280;42.600;23.556;2023-02-21T10:13:55;93569.50;;;12.82;46.01
10466;BME280;5280;42.600;23.556;2023-02-21T10:16:30;93558.97;;;12.92;45.11
10466;BME280;5280;42.600;23.556;2023-02-21T10:19:04;93559.56;;;13.05;45.44
10466;BME280;5280;42.600;23.556;2023-02-21T10:21:35;93562.19;;;13.16;46.13
10466;BME280;5280;42.600;23.556;2023-02-21T10:24:10;93557.72;;;13.17;44.37
10466;BME280;5280;42.600;23.556;2023-02-21T10:26:42;93552.69;;;13.14;44.66
10466;BME280;5280;42.600;23.556;2023-02-21T10:29:19;93527.84;;;13.15;44.44
10466;BME280;5280;42.600;23.556;2023-02-21T10:31:47;93518.34;;;13.22;43.41
10466;BME280;5280;42.600;23.556;2023-02-21T10:34:22;93489.91;;;13.03;43.62
10466;BME280;5280;42.600;23.556;2023-02-21T10:36:51;93526.13;;;13.44;43.03
10466;BME280;5280;42.600;23.556;2023-02-21T10:39:23;93525.03;;;13.56;42.78
10466;BME280;5280;42.600;23.556;2023-02-21T10:41:57;93450.75;;;13.26;43.33
10466;BME280;5280;42.600;23.556;2023-02-21T10:44:28;93518.25;;;13.83;43.30
10466;BME280;5280;42.600;23.556;2023-02-21T10:47:00;93517.84;;;13.97;41.36
10466;BME280;5280;42.600;23.556;2023-02-21T10:49:31;93507.75;;;14.00;40.92
10466;BME280;5280;42.600;23.556;2023-02-21T10:52:06;93482.19;;;13.99;38.96
10466;BME280;5280;42.600;23.556;2023-02-21T10:54:34;93507.94;;;14.18;40.51
10466;BME280;5280;42.600;23.556;2023-02-21T10:57:05;93479.97;;;14.14;40.20
10466;BME280;5280;42.600;23.556;2023-02-21T10:59:34;93490.84;;;14.01;39.45
10466;BME280;5280;42.600;23.556;2023-02-21T11:02:03;93483.84;;;14.10;40.37
10466;BME280;5280;42.600;23.556;2023-02-21T11:04:47;93478.28;;;14.13;39.87
10466;BME280;5280;42.600;23.556;2023-02-21T11:07:15;93469.88;;;14.17;40.08
10466;BME280;5280;42.600;23.556;2023-02-21T11:09:44;93476.59;;;14.21;41.12
10466;BME280;5280;42.600;23.556;2023-02-21T11:12:21;93452.38;;;14.15;41.42
10466;BME280;5280;42.600;23.556;2023-02-21T11:15:14;93469.31;;;14.23;41.92
10466;BME280;5280;42.600;23.556;2023-02-21T11:17:44;93423.75;;;13.99;42.75
10466;BME280;5280;42.600;23.556;2023-02-21T11:20:18;93461.47;;;14.22;43.53
10466;BME280;5280;42.600;23.556;2023-02-21T11:22:47;93445.22;;;14.25;42.19
10466;BME280;5280;42.600;23.556;2023-02-21T11:25:24;93444.53;;;14.33;42.83
10466;BME280;5280;42.600;23.556;2023-02-21T11:28:02;93450.00;;;14.41;39.77
10466;BME280;5280;42.600;23.556;2023-02-21T11:30:31;93448.13;;;14.60;39.47
10466;BME280;5280;42.600;23.556;2023-02-21T11:32:59;93440.72;;;14.74;41.50
10466;BME280;5280;42.600;23.556;2023-02-21T11:35:28;93441.22;;;14.87;40.07
10466;BME280;5280;42.600;23.556;2023-02-21T11:38:01;93421.03;;;14.94;37.70
10466;BME280;5280;42.600;23.556;2023-02-21T11:40:31;93414.06;;;15.11;38.96
10466;BME280;5280;42.600;23.556;2023-02-21T11:43:19;93424.16;;;15.34;37.51
10466;BME280;5280;42.600;23.556;2023-02-21T11:46:08;93412.75;;;15.52;36.09
10466;BME280;5280;42.600;23.556;2023-02-21T11:48:46;93410.09;;;15.69;35.46
10466;BME280;5280;42.600;23.556;2023-02-21T11:51:32;93405.69;;;15.78;34.42
10466;BME280;5280;42.600;23.556;2023-02-21T11:54:00;93409.66;;;15.91;34.01
10466;BME280;5280;42.600;23.556;2023-02-21T11:56:35;93379.34;;;15.92;33.73
10466;BME280;5280;42.600;23.556;2023-02-21T11:59:15;93377.72;;;16.00;32.74
10466;BME280;5280;42.600;23.556;2023-02-21T12:01:55;93332.44;;;15.82;33.25
10466;BME280;5280;42.600;23.556;2023-02-21T12:04:34;93375.63;;;16.29;33.89
10466;BME280;5280;42.600;23.556;2023-02-21T12:07:11;93373.56;;;16.41;32.88
10466;BME280;5280;42.600;23.556;2023-02-21T12:09:55;93366.59;;;16.48;32.98
10466;BME280;5280;42.600;23.556;2023-02-21T12:12:34;93358.97;;;16.53;31.95
10466;BME280;5280;42.600;23.556;2023-02-21T12:15:20;93359.72;;;16.63;31.81
10466;BME280;5280;42.600;23.556;2023-02-21T12:18:00;93342.34;;;16.59;30.36
10466;BME280;5280;42.600;23.556;2023-02-21T12:20:46;93339.72;;;16.67;31.57
10466;BME280;5280;42.600;23.556;2023-02-21T12:23:22;93340.44;;;16.77;31.73
10466;BME280;5280;42.600;23.556;2023-02-21T12:26:03;93324.09;;;16.80;31.90
10466;BME280;5280;42.600;23.556;2023-02-21T12:28:44;93323.47;;;16.86;31.64
10466;BME280;5280;42.600;23.556;2023-02-21T12:31:29;93316.66;;;16.92;31.04
10466;BME280;5280;42.600;23.556;2023-02-21T12:34:06;93278.00;;;16.62;30.79
10466;BME280;5280;42.600;23.556;2023-02-21T12:36:54;93327.00;;;16.95;31.04
10466;BME280;5280;42.600;23.556;2023-02-21T12:39:38;93315.47;;;16.94;31.32
10466;BME280;5280;42.600;23.556;2023-02-21T12:42:18;93313.84;;;17.01;31.24
10466;BME280;5280;42.600;23.556;2023-02-21T12:44:55;93303.97;;;16.94;32.48
10466;BME280;5280;42.600;23.556;2023-02-21T12:47:31;93314.34;;;16.97;31.38
10466;BME280;5280;42.600;23.556;2023-02-21T12:50:02;93287.56;;;16.81;32.06
10466;BME280;5280;42.600;23.556;2023-02-21T12:52:35;93281.75;;;16.85;31.47
10466;BME280;5280;42.600;23.556;2023-02-21T12:55:12;93302.19;;;17.10;30.54
10466;BME280;5280;42.600;23.556;2023-02-21T12:57:47;93290.97;;;16.99;31.57
10466;BME280;5280;42.600;23.556;2023-02-21T13:00:18;93307.03;;;17.07;30.73
10466;BME280;5280;42.600;23.556;2023-02-21T13:03:03;93309.56;;;17.08;31.43
10466;BME280;5280;42.600;23.556;2023-02-21T13:05:36;93293.69;;;17.07;31.77
10466;BME280;5280;42.600;23.556;2023-02-21T13:08:13;93296.22;;;17.16;30.77
10466;BME280;5280;42.600;23.556;2023-02-21T13:10:50;93278.81;;;17.04;31.12
10466;BME280;5280;42.600;23.556;2023-02-21T13:13:23;93296.22;;;17.25;30.86
10466;BME280;5280;42.600;23.556;2023-02-21T13:15:52;93274.78;;;17.00;30.04
10466;BME280;5280;42.600;23.556;2023-02-21T13:18:26;93270.81;;;17.04;30.99
10466;BME280;5280;42.600;23.556;2023-02-21T13:20:57;93286.19;;;17.18;31.04
10466;BME280;5280;42.600;23.556;2023-02-21T13:23:45;93287.53;;;17.14;30.79
10466;BME280;5280;42.600;23.556;2023-02-21T13:29:25;93267.13;;;16.97;31.18
10466;BME280;5280;42.600;23.556;2023-02-21T13:31:58;93256.75;;;16.94;29.57
10466;BME280;5280;42.600;23.556;2023-02-21T13:34:30;93264.47;;;16.97;30.19
10466;BME280;5280;42.600;23.556;2023-02-21T13:37:04;93277.81;;;16.97;31.45
10466;BME280;5280;42.600;23.556;2023-02-21T13:39:33;93291.16;;;16.97;31.15
10466;BME280;5280;42.600;23.556;2023-02-21T13:42:05;93274.59;;;16.86;31.16
10466;BME280;5280;42.600;23.556;2023-02-21T13:44:35;93281.13;;;16.91;31.22
10466;BME280;5280;42.600;23.556;2023-02-21T13:47:10;93280.13;;;16.92;30.68
10466;BME280;5280;42.600;23.556;2023-02-21T13:49:54;93281.13;;;16.91;30.72
10466;BME280;5280;42.600;23.556;2023-02-21T13:53:08;93289.47;;;16.88;31.42